sensor_id;sensor_type;location;lat;lon;timestamp;P1;durP1;ratioP1;P2;durP2;ratioP2
21729;SDS011;11027;51.030;13.812;2024-01-15T00:01:01;9.85;;;5.78;;
21729;SDS011;11027;51.030;13.812;2024-01-15T00:03:27;10.60;;;6.43;;
21729;SDS011;11027;51.030;13.812;2024-01-15T00:05:52;9.93;;;6.03;;
21729;SDS011;11027;51.030;13.812;2024-01-15T00:08:17;9.48;;;5.57;;
21729;SDS011;11027;51.030;13.812;2024-01-15T00:10:43;11.15;;;6.63;;
21729;SDS011;11027;51.030;13.812;2024-01-15T00:13:08;12.32;;;6.63;;
21729;SDS011;11027;51.030;13.812;2024-01-15T00:15:34;9.85;;;6.50;;
21729;SDS011;11027;51.030;13.812;2024-01-15T00:17:59;9.45;;;5.93;;
21729;SDS011;11027;51.030;13.812;2024-01-15T00:20:24;12.88;;;7.35;;
21729;SDS011;11027;51.030;13.812;2024-01-15T00:22:49;10.70;;;7.32;;
21729;SDS011;11027;51.030;13.812;2024-01-15T00:25:14;12.30;;;6.82;;
21729;SDS011;11027;51.030;13.812;2024-01-15T00:27:40;12.50;;;7.40;;
21729;SDS011;11027;51.030;13.812;2024-01-15T00:30:05;10.10;;;6.78;;
21729;SDS011;11027;51.030;13.812;2024-01-15T00:32:31;10.65;;;6.82;;
21729;SDS011;11027;51.030;13.812;2024-01-15T00:34:56;12.50;;;7.03;;
21729;SDS011;11027;51.030;13.812;2024-01-15T00:37:21;14.27;;;7.60;;
21729;SDS011;11027;51.030;13.812;2024-01-15T00:39:47;12.82;;;7.45;;
21729;SDS011;11027;51.030;13.812;2024-01-15T00:42:12;11.63;;;7.13;;
21729;SDS011;11027;51.030;13.812;2024-01-15T00:44:37;12.52;;;6.85;;
21729;SDS011;11027;51.030;13.812;2024-01-15T00:47:03;13.90;;;7.50;;
21729;SDS011;11027;51.030;13.812;2024-01-15T00:49:28;14.85;;;7.93;;
21729;SDS011;11027;51.030;13.812;2024-01-15T00:51:53;12.50;;;7.20;;
21729;SDS011;11027;51.030;13.812;2024-01-15T00:54:19;12.90;;;7.90;;
21729;SDS011;11027;51.030;13.812;2024-01-15T00:56:44;13.52;;;7.95;;
21729;SDS011;11027;51.030;13.812;2024-01-15T00:59:09;11.27;;;6.88;;
21729;SDS011;11027;51.030;13.812;2024-01-15T01:01:35;11.43;;;7.03;;
21729;SDS011;11027;51.030;13.812;2024-01-15T01:04:01;11.65;;;6.80;;
21729;SDS011;11027;51.030;13.812;2024-01-15T01:06:26;15.02;;;7.20;;
21729;SDS011;11027;51.030;13.812;2024-01-15T01:08:51;10.00;;;6.60;;
21729;SDS011;11027;51.030;13.812;2024-01-15T01:11:17;13.85;;;6.93;;
21729;SDS011;11027;51.030;13.812;2024-01-15T01:13:42;12.85;;;7.13;;
21729;SDS011;11027;51.030;13.812;2024-01-15T01:16:07;14.20;;;7.32;;
21729;SDS011;11027;51.030;13.812;2024-01-15T01:18:33;12.15;;;7.00;;
21729;SDS011;11027;51.030;13.812;2024-01-15T01:20:58;10.25;;;7.30;;
21729;SDS011;11027;51.030;13.812;2024-01-15T01:23:24;11.10;;;7.25;;
21729;SDS011;11027;51.030;13.812;2024-01-15T01:25:49;12.18;;;6.82;;
21729;SDS011;11027;51.030;13.812;2024-01-15T01:28:14;10.88;;;7.10;;
21729;SDS011;11027;51.030;13.812;2024-01-15T01:30:39;10.75;;;7.00;;
21729;SDS011;11027;51.030;13.812;2024-01-15T01:33:05;12.63;;;7.22;;
21729;SDS011;11027;51.030;13.812;2024-01-15T01:35:30;12.25;;;6.95;;
21729;SDS011;11027;51.030;13.812;2024-01-15T01:37:55;11.68;;;6.65;;
21729;SDS011;11027;51.030;13.812;2024-01-15T01:40:20;11.50;;;7.53;;
21729;SDS011;11027;51.030;13.812;2024-01-15T01:42:46;13.07;;;7.95;;
21729;SDS011;11027;51.030;13.812;2024-01-15T01:45:13;11.48;;;7.63;;
21729;SDS011;11027;51.030;13.812;2024-01-15T01:47:38;11.95;;;7.50;;
21729;SDS011;11027;51.030;13.812;2024-01-15T01:50:03;13.35;;;8.93;;
21729;SDS011;11027;51.030;13.812;2024-01-15T01:52:30;12.70;;;7.50;;
21729;SDS011;11027;51.030;13.812;2024-01-15T01:54:55;12.88;;;7.03;;
21729;SDS011;11027;51.030;13.812;2024-01-15T01:57:21;12.68;;;7.00;;
21729;SDS011;11027;51.030;13.812;2024-01-15T01:59:46;10.77;;;6.50;;
21729;SDS011;11027;51.030;13.812;2024-01-15T02:02:12;12.68;;;6.70;;
21729;SDS011;11027;51.030;13.812;2024-01-15T02:04:38;12.68;;;6.95;;
21729;SDS011;11027;51.030;13.812;2024-01-15T02:07:05;11.90;;;7.43;;
21729;SDS011;11027;51.030;13.812;2024-01-15T02:09:30;11.75;;;6.75;;
21729;SDS011;11027;51.030;13.812;2024-01-15T02:11:56;12.00;;;7.18;;
21729;SDS011;11027;51.030;13.812;2024-01-15T02:14:22;13.82;;;7.65;;
21729;SDS011;11027;51.030;13.812;2024-01-15T02:16:47;13.98;;;7.05;;
21729;SDS011;11027;51.030;13.812;2024-01-15T02:19:16;14.02;;;7.63;;
21729;SDS011;11027;51.030;13.812;2024-01-15T02:21:42;13.38;;;7.53;;
21729;SDS011;11027;51.030;13.812;2024-01-15T02:24:07;13.27;;;7.85;;
21729;SDS011;11027;51.030;13.812;2024-01-15T02:26:33;12.07;;;7.47;;
21729;SDS011;11027;51.030;13.812;2024-01-15T02:29:00;14.98;;;9.15;;
21729;SDS011;11027;51.030;13.812;2024-01-15T02:31:26;13.15;;;8.20;;
21729;SDS011;11027;51.030;13.812;2024-01-15T02:33:51;15.57;;;8.35;;
21729;SDS011;11027;51.030;13.812;2024-01-15T02:36:17;13.40;;;7.60;;
21729;SDS011;11027;51.030;13.812;2024-01-15T02:38:42;14.10;;;8.18;;
21729;SDS011;11027;51.030;13.812;2024-01-15T02:41:07;14.07;;;8.32;;
21729;SDS011;11027;51.030;13.812;2024-01-15T02:43:32;12.90;;;7.95;;
21729;SDS011;11027;51.030;13.812;2024-01-15T02:45:58;12.25;;;7.30;;
21729;SDS011;11027;51.030;13.812;2024-01-15T02:48:23;11.73;;;7.40;;
21729;SDS011;11027;51.030;13.812;2024-01-15T02:50:48;12.25;;;7.43;;
21729;SDS011;11027;51.030;13.812;2024-01-15T02:53:13;11.38;;;7.05;;
21729;SDS011;11027;51.030;13.812;2024-01-15T02:55:39;12.07;;;7.40;;
21729;SDS011;11027;51.030;13.812;2024-01-15T02:58:04;14.95;;;7.38;;
21729;SDS011;11027;51.030;13.812;2024-01-15T03:00:29;12.95;;;7.20;;
21729;SDS011;11027;51.030;13.812;2024-01-15T03:02:54;15.80;;;7.90;;
21729;SDS011;11027;51.030;13.812;2024-01-15T03:05:20;14.27;;;7.97;;
21729;SDS011;11027;51.030;13.812;2024-01-15T03:07:45;13.90;;;7.53;;
21729;SDS011;11027;51.030;13.812;2024-01-15T03:10:10;12.73;;;7.30;;
21729;SDS011;11027;51.030;13.812;2024-01-15T03:12:36;12.57;;;7.50;;
21729;SDS011;11027;51.030;13.812;2024-01-15T03:15:01;11.38;;;7.15;;
21729;SDS011;11027;51.030;13.812;2024-01-15T03:17:26;11.63;;;7.65;;
21729;SDS011;11027;51.030;13.812;2024-01-15T03:19:51;13.43;;;7.35;;
21729;SDS011;11027;51.030;13.812;2024-01-15T03:22:17;14.23;;;7.47;;
21729;SDS011;11027;51.030;13.812;2024-01-15T03:24:42;14.90;;;7.75;;
21729;SDS011;11027;51.030;13.812;2024-01-15T03:27:08;15.63;;;8.05;;
21729;SDS011;11027;51.030;13.812;2024-01-15T03:29:33;12.45;;;7.80;;
21729;SDS011;11027;51.030;13.812;2024-01-15T03:31:58;14.18;;;7.85;;
21729;SDS011;11027;51.030;13.812;2024-01-15T03:34:24;13.10;;;8.18;;
21729;SDS011;11027;51.030;13.812;2024-01-15T03:36:49;14.40;;;7.68;;
21729;SDS011;11027;51.030;13.812;2024-01-15T03:39:15;13.20;;;7.78;;
21729;SDS011;11027;51.030;13.812;2024-01-15T03:41:41;15.20;;;9.00;;
21729;SDS011;11027;51.030;13.812;2024-01-15T03:44:06;14.48;;;8.15;;
21729;SDS011;11027;51.030;13.812;2024-01-15T03:46:31;15.13;;;8.25;;
21729;SDS011;11027;51.030;13.812;2024-01-15T03:48:57;14.65;;;8.07;;
21729;SDS011;11027;51.030;13.812;2024-01-15T03:51:22;15.40;;;8.75;;
21729;SDS011;11027;51.030;13.812;2024-01-15T03:53:48;13.65;;;7.80;;
21729;SDS011;11027;51.030;13.812;2024-01-15T03:56:13;14.23;;;8.35;;
21729;SDS011;11027;51.030;13.812;2024-01-15T03:58:38;16.33;;;10.77;;
21729;SDS011;11027;51.030;13.812;2024-01-15T04:01:03;18.05;;;8.70;;
21729;SDS011;11027;51.030;13.812;2024-01-15T04:03:33;13.13;;;7.93;;
21729;SDS011;11027;51.030;13.812;2024-01-15T04:05:58;16.02;;;8.90;;
21729;SDS011;11027;51.030;13.812;2024-01-15T04:08:24;17.80;;;9.20;;
21729;SDS011;11027;51.030;13.812;2024-01-15T04:10:49;16.05;;;9.10;;
21729;SDS011;11027;51.030;13.812;2024-01-15T04:13:14;16.98;;;9.40;;
21729;SDS011;11027;51.030;13.812;2024-01-15T04:15:39;16.70;;;9.57;;
21729;SDS011;11027;51.030;13.812;2024-01-15T04:18:05;12.77;;;8.38;;
21729;SDS011;11027;51.030;13.812;2024-01-15T04:20:30;16.88;;;8.38;;
21729;SDS011;11027;51.030;13.812;2024-01-15T04:22:55;16.17;;;8.93;;
21729;SDS011;11027;51.030;13.812;2024-01-15T04:25:20;16.67;;;9.20;;
21729;SDS011;11027;51.030;13.812;2024-01-15T04:27:46;16.60;;;9.05;;
21729;SDS011;11027;51.030;13.812;2024-01-15T04:30:11;15.70;;;9.40;;
21729;SDS011;11027;51.030;13.812;2024-01-15T04:32:36;16.55;;;8.73;;
21729;SDS011;11027;51.030;13.812;2024-01-15T04:35:02;16.00;;;8.90;;
21729;SDS011;11027;51.030;13.812;2024-01-15T04:37:27;14.82;;;8.82;;
21729;SDS011;11027;51.030;13.812;2024-01-15T04:39:52;17.67;;;9.32;;
21729;SDS011;11027;51.030;13.812;2024-01-15T04:42:19;16.02;;;8.65;;
21729;SDS011;11027;51.030;13.812;2024-01-15T04:44:45;16.58;;;8.88;;
21729;SDS011;11027;51.030;13.812;2024-01-15T04:47:10;16.77;;;9.07;;
21729;SDS011;11027;51.030;13.812;2024-01-15T04:49:36;13.10;;;7.93;;
21729;SDS011;11027;51.030;13.812;2024-01-15T04:52:01;15.38;;;9.20;;
21729;SDS011;11027;51.030;13.812;2024-01-15T04:54:26;13.93;;;8.57;;
21729;SDS011;11027;51.030;13.812;2024-01-15T04:56:52;14.55;;;8.18;;
21729;SDS011;11027;51.030;13.812;2024-01-15T04:59:17;16.08;;;8.80;;
21729;SDS011;11027;51.030;13.812;2024-01-15T05:01:42;16.45;;;8.68;;
21729;SDS011;11027;51.030;13.812;2024-01-15T05:04:08;15.35;;;8.50;;
21729;SDS011;11027;51.030;13.812;2024-01-15T05:06:33;13.55;;;8.63;;
21729;SDS011;11027;51.030;13.812;2024-01-15T05:08:58;19.17;;;9.02;;
21729;SDS011;11027;51.030;13.812;2024-01-15T05:11:24;15.77;;;10.05;;
21729;SDS011;11027;51.030;13.812;2024-01-15T05:13:49;17.83;;;9.50;;
21729;SDS011;11027;51.030;13.812;2024-01-15T05:16:15;15.70;;;8.85;;
21729;SDS011;11027;51.030;13.812;2024-01-15T05:18:40;21.25;;;8.63;;
21729;SDS011;11027;51.030;13.812;2024-01-15T05:21:05;17.25;;;9.10;;
21729;SDS011;11027;51.030;13.812;2024-01-15T05:23:31;20.88;;;8.65;;
21729;SDS011;11027;51.030;13.812;2024-01-15T05:25:56;17.70;;;9.30;;
21729;SDS011;11027;51.030;13.812;2024-01-15T05:28:22;17.48;;;9.13;;
21729;SDS011;11027;51.030;13.812;2024-01-15T05:30:47;17.38;;;9.45;;
21729;SDS011;11027;51.030;13.812;2024-01-15T05:33:12;16.30;;;8.93;;
21729;SDS011;11027;51.030;13.812;2024-01-15T05:35:38;15.00;;;8.70;;
21729;SDS011;11027;51.030;13.812;2024-01-15T05:38:03;17.45;;;8.90;;
21729;SDS011;11027;51.030;13.812;2024-01-15T05:40:28;15.85;;;8.90;;
21729;SDS011;11027;51.030;13.812;2024-01-15T05:42:54;15.93;;;8.73;;
21729;SDS011;11027;51.030;13.812;2024-01-15T05:45:19;15.57;;;9.07;;
21729;SDS011;11027;51.030;13.812;2024-01-15T05:47:44;18.90;;;9.88;;
21729;SDS011;11027;51.030;13.812;2024-01-15T05:50:09;17.67;;;8.43;;
21729;SDS011;11027;51.030;13.812;2024-01-15T05:52:35;16.27;;;8.20;;
21729;SDS011;11027;51.030;13.812;2024-01-15T05:55:00;18.30;;;8.63;;
21729;SDS011;11027;51.030;13.812;2024-01-15T05:57:26;16.50;;;9.02;;
21729;SDS011;11027;51.030;13.812;2024-01-15T05:59:51;16.35;;;8.23;;
21729;SDS011;11027;51.030;13.812;2024-01-15T06:02:16;17.00;;;8.93;;
21729;SDS011;11027;51.030;13.812;2024-01-15T06:04:41;16.30;;;8.80;;
21729;SDS011;11027;51.030;13.812;2024-01-15T06:07:07;15.60;;;8.10;;
21729;SDS011;11027;51.030;13.812;2024-01-15T06:09:32;17.55;;;8.50;;
21729;SDS011;11027;51.030;13.812;2024-01-15T06:11:57;15.32;;;8.18;;
21729;SDS011;11027;51.030;13.812;2024-01-15T06:14:23;15.82;;;8.40;;
21729;SDS011;11027;51.030;13.812;2024-01-15T06:16:48;15.90;;;9.55;;
21729;SDS011;11027;51.030;13.812;2024-01-15T06:19:14;15.63;;;8.43;;
21729;SDS011;11027;51.030;13.812;2024-01-15T06:21:39;16.33;;;8.82;;
21729;SDS011;11027;51.030;13.812;2024-01-15T06:24:05;14.68;;;8.05;;
21729;SDS011;11027;51.030;13.812;2024-01-15T06:26:30;14.13;;;8.65;;
21729;SDS011;11027;51.030;13.812;2024-01-15T06:28:55;13.23;;;7.80;;
21729;SDS011;11027;51.030;13.812;2024-01-15T06:31:20;16.23;;;8.18;;
21729;SDS011;11027;51.030;13.812;2024-01-15T06:33:46;16.20;;;8.68;;
21729;SDS011;11027;51.030;13.812;2024-01-15T06:36:13;13.57;;;7.38;;
21729;SDS011;11027;51.030;13.812;2024-01-15T06:38:38;13.73;;;7.30;;
21729;SDS011;11027;51.030;13.812;2024-01-15T06:41:04;13.52;;;7.05;;
21729;SDS011;11027;51.030;13.812;2024-01-15T06:43:29;14.68;;;8.02;;
21729;SDS011;11027;51.030;13.812;2024-01-15T06:45:54;15.35;;;8.65;;
21729;SDS011;11027;51.030;13.812;2024-01-15T06:48:19;14.32;;;7.50;;
21729;SDS011;11027;51.030;13.812;2024-01-15T06:50:45;11.63;;;6.75;;
21729;SDS011;11027;51.030;13.812;2024-01-15T06:53:10;14.50;;;7.40;;
21729;SDS011;11027;51.030;13.812;2024-01-15T06:55:36;14.43;;;7.40;;
21729;SDS011;11027;51.030;13.812;2024-01-15T06:58:01;12.00;;;6.70;;
21729;SDS011;11027;51.030;13.812;2024-01-15T07:00:26;11.18;;;6.43;;
21729;SDS011;11027;51.030;13.812;2024-01-15T07:02:52;12.20;;;6.88;;
21729;SDS011;11027;51.030;13.812;2024-01-15T07:05:17;13.05;;;6.60;;
21729;SDS011;11027;51.030;13.812;2024-01-15T07:07:43;12.57;;;6.80;;
21729;SDS011;11027;51.030;13.812;2024-01-15T07:10:08;15.30;;;7.45;;
21729;SDS011;11027;51.030;13.812;2024-01-15T07:12:34;11.27;;;5.90;;
21729;SDS011;11027;51.030;13.812;2024-01-15T07:14:59;11.18;;;5.90;;
21729;SDS011;11027;51.030;13.812;2024-01-15T07:17:24;11.77;;;6.63;;
21729;SDS011;11027;51.030;13.812;2024-01-15T07:19:50;9.70;;;5.93;;
21729;SDS011;11027;51.030;13.812;2024-01-15T07:22:15;14.25;;;6.18;;
21729;SDS011;11027;51.030;13.812;2024-01-15T07:24:42;12.15;;;5.90;;
21729;SDS011;11027;51.030;13.812;2024-01-15T07:27:07;9.75;;;5.93;;
21729;SDS011;11027;51.030;13.812;2024-01-15T07:29:33;10.00;;;5.65;;
21729;SDS011;11027;51.030;13.812;2024-01-15T07:32:01;16.33;;;5.75;;
21729;SDS011;11027;51.030;13.812;2024-01-15T07:34:26;11.52;;;6.13;;
21729;SDS011;11027;51.030;13.812;2024-01-15T07:36:51;10.90;;;6.47;;
21729;SDS011;11027;51.030;13.812;2024-01-15T07:39:17;13.95;;;6.15;;
21729;SDS011;11027;51.030;13.812;2024-01-15T07:41:42;11.27;;;6.10;;
21729;SDS011;11027;51.030;13.812;2024-01-15T07:44:07;12.68;;;5.72;;
21729;SDS011;11027;51.030;13.812;2024-01-15T07:46:32;9.93;;;5.35;;
21729;SDS011;11027;51.030;13.812;2024-01-15T07:48:58;11.88;;;5.97;;
21729;SDS011;11027;51.030;13.812;2024-01-15T07:51:23;10.35;;;5.25;;
21729;SDS011;11027;51.030;13.812;2024-01-15T07:53:49;10.85;;;6.03;;
21729;SDS011;11027;51.030;13.812;2024-01-15T07:56:15;11.43;;;6.55;;
21729;SDS011;11027;51.030;13.812;2024-01-15T07:58:41;12.60;;;6.13;;
21729;SDS011;11027;51.030;13.812;2024-01-15T08:01:06;13.32;;;6.28;;
21729;SDS011;11027;51.030;13.812;2024-01-15T08:03:31;11.00;;;6.10;;
21729;SDS011;11027;51.030;13.812;2024-01-15T08:05:57;11.38;;;6.28;;
21729;SDS011;11027;51.030;13.812;2024-01-15T08:08:24;11.80;;;5.55;;
21729;SDS011;11027;51.030;13.812;2024-01-15T08:10:51;11.23;;;5.75;;
21729;SDS011;11027;51.030;13.812;2024-01-15T08:13:17;12.70;;;5.55;;
21729;SDS011;11027;51.030;13.812;2024-01-15T08:15:42;9.93;;;5.35;;
21729;SDS011;11027;51.030;13.812;2024-01-15T08:18:08;10.27;;;6.10;;
21729;SDS011;11027;51.030;13.812;2024-01-15T08:20:34;10.77;;;5.57;;
21729;SDS011;11027;51.030;13.812;2024-01-15T08:22:59;10.90;;;5.82;;
21729;SDS011;11027;51.030;13.812;2024-01-15T08:25:24;11.32;;;5.15;;
21729;SDS011;11027;51.030;13.812;2024-01-15T08:27:50;10.65;;;5.70;;
21729;SDS011;11027;51.030;13.812;2024-01-15T08:30:16;10.20;;;5.78;;
21729;SDS011;11027;51.030;13.812;2024-01-15T08:32:41;9.68;;;5.65;;
21729;SDS011;11027;51.030;13.812;2024-01-15T08:35:08;13.82;;;5.32;;
21729;SDS011;11027;51.030;13.812;2024-01-15T08:37:34;11.68;;;6.30;;
21729;SDS011;11027;51.030;13.812;2024-01-15T08:39:59;12.10;;;5.35;;
21729;SDS011;11027;51.030;13.812;2024-01-15T08:42:24;10.82;;;5.28;;
21729;SDS011;11027;51.030;13.812;2024-01-15T08:44:49;18.02;;;9.60;;
21729;SDS011;11027;51.030;13.812;2024-01-15T08:47:15;11.85;;;6.05;;
21729;SDS011;11027;51.030;13.812;2024-01-15T08:49:40;11.73;;;5.88;;
21729;SDS011;11027;51.030;13.812;2024-01-15T08:52:07;12.00;;;5.38;;
21729;SDS011;11027;51.030;13.812;2024-01-15T08:54:32;13.43;;;5.45;;
21729;SDS011;11027;51.030;13.812;2024-01-15T08:56:58;10.20;;;4.57;;
21729;SDS011;11027;51.030;13.812;2024-01-15T08:59:23;10.85;;;5.10;;
21729;SDS011;11027;51.030;13.812;2024-01-15T09:01:50;9.05;;;5.55;;
21729;SDS011;11027;51.030;13.812;2024-01-15T09:04:16;9.98;;;4.85;;
21729;SDS011;11027;51.030;13.812;2024-01-15T09:06:44;10.60;;;5.15;;
21729;SDS011;11027;51.030;13.812;2024-01-15T09:09:10;10.23;;;5.18;;
21729;SDS011;11027;51.030;13.812;2024-01-15T09:11:36;10.68;;;4.72;;
21729;SDS011;11027;51.030;13.812;2024-01-15T09:14:01;13.82;;;5.47;;
21729;SDS011;11027;51.030;13.812;2024-01-15T09:16:26;10.25;;;5.03;;
21729;SDS011;11027;51.030;13.812;2024-01-15T09:18:51;9.75;;;5.10;;
21729;SDS011;11027;51.030;13.812;2024-01-15T09:21:17;8.55;;;4.68;;
21729;SDS011;11027;51.030;13.812;2024-01-15T09:23:42;8.20;;;4.75;;
21729;SDS011;11027;51.030;13.812;2024-01-15T09:26:08;10.65;;;5.13;;
21729;SDS011;11027;51.030;13.812;2024-01-15T09:28:34;10.93;;;4.25;;
21729;SDS011;11027;51.030;13.812;2024-01-15T09:30:59;8.02;;;4.28;;
21729;SDS011;11027;51.030;13.812;2024-01-15T09:33:24;9.77;;;4.28;;
21729;SDS011;11027;51.030;13.812;2024-01-15T09:35:50;6.85;;;3.92;;
21729;SDS011;11027;51.030;13.812;2024-01-15T09:38:15;7.63;;;4.03;;
21729;SDS011;11027;51.030;13.812;2024-01-15T09:40:40;10.00;;;4.70;;
21729;SDS011;11027;51.030;13.812;2024-01-15T09:43:08;9.13;;;4.68;;
21729;SDS011;11027;51.030;13.812;2024-01-15T09:45:33;7.65;;;4.07;;
21729;SDS011;11027;51.030;13.812;2024-01-15T09:47:59;8.27;;;4.57;;
21729;SDS011;11027;51.030;13.812;2024-01-15T09:50:24;10.15;;;4.35;;
21729;SDS011;11027;51.030;13.812;2024-01-15T09:52:49;8.00;;;4.15;;
21729;SDS011;11027;51.030;13.812;2024-01-15T09:55:15;11.25;;;3.92;;
21729;SDS011;11027;51.030;13.812;2024-01-15T09:57:43;6.82;;;3.83;;
21729;SDS011;11027;51.030;13.812;2024-01-15T10:00:09;7.57;;;3.95;;
21729;SDS011;11027;51.030;13.812;2024-01-15T10:02:35;5.95;;;4.00;;
21729;SDS011;11027;51.030;13.812;2024-01-15T10:05:01;8.50;;;4.40;;
21729;SDS011;11027;51.030;13.812;2024-01-15T10:07:27;9.65;;;4.82;;
21729;SDS011;11027;51.030;13.812;2024-01-15T10:09:54;7.47;;;4.03;;
21729;SDS011;11027;51.030;13.812;2024-01-15T10:12:20;10.48;;;4.40;;
21729;SDS011;11027;51.030;13.812;2024-01-15T10:14:47;9.77;;;4.22;;
21729;SDS011;11027;51.030;13.812;2024-01-15T10:17:14;9.32;;;3.70;;
21729;SDS011;11027;51.030;13.812;2024-01-15T10:19:42;8.10;;;3.90;;
21729;SDS011;11027;51.030;13.812;2024-01-15T10:22:08;5.60;;;3.35;;
21729;SDS011;11027;51.030;13.812;2024-01-15T10:24:35;8.00;;;3.92;;
21729;SDS011;11027;51.030;13.812;2024-01-15T10:27:04;9.85;;;4.18;;
21729;SDS011;11027;51.030;13.812;2024-01-15T10:29:31;9.82;;;4.20;;
21729;SDS011;11027;51.030;13.812;2024-01-15T10:31:56;8.95;;;3.70;;
21729;SDS011;11027;51.030;13.812;2024-01-15T10:34:22;7.30;;;4.40;;
21729;SDS011;11027;51.030;13.812;2024-01-15T10:36:47;7.93;;;4.05;;
21729;SDS011;11027;51.030;13.812;2024-01-15T10:39:20;7.35;;;3.92;;
21729;SDS011;11027;51.030;13.812;2024-01-15T10:41:45;7.90;;;4.15;;
21729;SDS011;11027;51.030;13.812;2024-01-15T10:44:11;8.18;;;3.58;;
21729;SDS011;11027;51.030;13.812;2024-01-15T10:46:36;10.13;;;3.38;;
21729;SDS011;11027;51.030;13.812;2024-01-15T10:49:02;7.93;;;4.20;;
21729;SDS011;11027;51.030;13.812;2024-01-15T10:51:27;7.97;;;4.22;;
21729;SDS011;11027;51.030;13.812;2024-01-15T10:53:53;9.57;;;4.05;;
21729;SDS011;11027;51.030;13.812;2024-01-15T10:56:21;8.65;;;3.90;;
21729;SDS011;11027;51.030;13.812;2024-01-15T10:58:47;9.25;;;3.97;;
21729;SDS011;11027;51.030;13.812;2024-01-15T11:01:12;8.13;;;3.60;;
21729;SDS011;11027;51.030;13.812;2024-01-15T11:03:38;10.60;;;3.40;;
21729;SDS011;11027;51.030;13.812;2024-01-15T11:06:15;9.23;;;3.88;;
21729;SDS011;11027;51.030;13.812;2024-01-15T11:08:42;8.48;;;3.75;;
21729;SDS011;11027;51.030;13.812;2024-01-15T11:11:08;8.43;;;3.78;;
21729;SDS011;11027;51.030;13.812;2024-01-15T11:16:03;5.93;;;3.42;;
21729;SDS011;11027;51.030;13.812;2024-01-15T11:18:34;10.40;;;3.58;;
21729;SDS011;11027;51.030;13.812;2024-01-15T11:23:48;7.80;;;3.90;;
21729;SDS011;11027;51.030;13.812;2024-01-15T11:29:04;8.40;;;3.90;;
21729;SDS011;11027;51.030;13.812;2024-01-15T11:34:12;6.32;;;3.92;;
21729;SDS011;11027;51.030;13.812;2024-01-15T11:37:00;9.10;;;4.30;;
21729;SDS011;11027;51.030;13.812;2024-01-15T11:41:55;6.20;;;3.88;;
21729;SDS011;11027;51.030;13.812;2024-01-15T11:44:21;7.35;;;4.28;;
21729;SDS011;11027;51.030;13.812;2024-01-15T11:47:00;8.90;;;4.43;;
21729;SDS011;11027;51.030;13.812;2024-01-15T11:52:17;10.30;;;4.32;;
21729;SDS011;11027;51.030;13.812;2024-01-15T11:54:59;9.65;;;4.15;;
21729;SDS011;11027;51.030;13.812;2024-01-15T11:57:42;8.45;;;4.05;;
21729;SDS011;11027;51.030;13.812;2024-01-15T12:00:11;6.70;;;4.13;;
21729;SDS011;11027;51.030;13.812;2024-01-15T12:02:38;9.00;;;4.25;;
21729;SDS011;11027;51.030;13.812;2024-01-15T12:05:05;11.40;;;4.32;;
21729;SDS011;11027;51.030;13.812;2024-01-15T12:07:31;12.10;;;4.60;;
21729;SDS011;11027;51.030;13.812;2024-01-15T12:09:56;6.90;;;3.95;;
21729;SDS011;11027;51.030;13.812;2024-01-15T12:12:24;8.30;;;4.00;;
21729;SDS011;11027;51.030;13.812;2024-01-15T12:14:58;7.30;;;3.90;;
21729;SDS011;11027;51.030;13.812;2024-01-15T12:17:23;7.10;;;4.10;;
21729;SDS011;11027;51.030;13.812;2024-01-15T12:19:48;7.82;;;3.80;;
21729;SDS011;11027;51.030;13.812;2024-01-15T12:22:14;8.68;;;4.32;;
21729;SDS011;11027;51.030;13.812;2024-01-15T12:24:40;7.88;;;4.25;;
21729;SDS011;11027;51.030;13.812;2024-01-15T12:27:05;8.40;;;4.45;;
21729;SDS011;11027;51.030;13.812;2024-01-15T12:29:32;7.20;;;4.30;;
21729;SDS011;11027;51.030;13.812;2024-01-15T12:31:58;8.63;;;4.55;;
21729;SDS011;11027;51.030;13.812;2024-01-15T12:34:23;8.20;;;4.20;;
21729;SDS011;11027;51.030;13.812;2024-01-15T12:36:48;9.55;;;4.55;;
21729;SDS011;11027;51.030;13.812;2024-01-15T12:39:14;8.45;;;4.63;;
21729;SDS011;11027;51.030;13.812;2024-01-15T12:41:40;8.90;;;4.65;;
21729;SDS011;11027;51.030;13.812;2024-01-15T12:44:06;8.82;;;4.63;;
21729;SDS011;11027;51.030;13.812;2024-01-15T12:46:32;12.35;;;4.95;;
21729;SDS011;11027;51.030;13.812;2024-01-15T12:48:57;8.80;;;4.63;;
21729;SDS011;11027;51.030;13.812;2024-01-15T12:51:26;9.13;;;4.72;;
21729;SDS011;11027;51.030;13.812;2024-01-15T12:53:51;10.98;;;5.03;;
21729;SDS011;11027;51.030;13.812;2024-01-15T12:56:17;9.90;;;4.97;;
21729;SDS011;11027;51.030;13.812;2024-01-15T12:58:42;9.60;;;4.80;;
21729;SDS011;11027;51.030;13.812;2024-01-15T13:01:07;9.13;;;5.22;;
21729;SDS011;11027;51.030;13.812;2024-01-15T13:03:33;10.20;;;4.60;;
21729;SDS011;11027;51.030;13.812;2024-01-15T13:05:58;10.63;;;4.85;;
21729;SDS011;11027;51.030;13.812;2024-01-15T13:08:23;9.60;;;5.40;;
21729;SDS011;11027;51.030;13.812;2024-01-15T13:10:51;8.40;;;4.55;;
21729;SDS011;11027;51.030;13.812;2024-01-15T13:13:17;9.82;;;5.05;;
21729;SDS011;11027;51.030;13.812;2024-01-15T13:15:42;9.02;;;4.45;;
21729;SDS011;11027;51.030;13.812;2024-01-15T13:18:08;9.05;;;4.50;;
21729;SDS011;11027;51.030;13.812;2024-01-15T13:20:33;8.00;;;4.57;;
21729;SDS011;11027;51.030;13.812;2024-01-15T13:22:58;8.80;;;4.57;;
21729;SDS011;11027;51.030;13.812;2024-01-15T13:25:24;10.68;;;4.75;;
21729;SDS011;11027;51.030;13.812;2024-01-15T13:27:49;9.68;;;5.15;;
21729;SDS011;11027;51.030;13.812;2024-01-15T13:30:15;10.15;;;4.93;;
21729;SDS011;11027;51.030;13.812;2024-01-15T13:32:41;8.95;;;4.75;;
21729;SDS011;11027;51.030;13.812;2024-01-15T13:35:07;8.93;;;4.93;;
21729;SDS011;11027;51.030;13.812;2024-01-15T13:37:34;8.77;;;5.32;;
21729;SDS011;11027;51.030;13.812;2024-01-15T13:39:59;9.05;;;5.65;;
21729;SDS011;11027;51.030;13.812;2024-01-15T13:42:25;8.95;;;4.47;;
21729;SDS011;11027;51.030;13.812;2024-01-15T13:44:52;10.73;;;5.28;;
21729;SDS011;11027;51.030;13.812;2024-01-15T13:47:17;8.70;;;4.75;;
21729;SDS011;11027;51.030;13.812;2024-01-15T13:49:42;10.20;;;6.53;;
21729;SDS011;11027;51.030;13.812;2024-01-15T13:52:08;11.80;;;4.57;;
21729;SDS011;11027;51.030;13.812;2024-01-15T13:54:33;8.50;;;4.95;;
21729;SDS011;11027;51.030;13.812;2024-01-15T13:56:58;10.65;;;5.85;;
21729;SDS011;11027;51.030;13.812;2024-01-15T13:59:24;8.70;;;4.93;;
21729;SDS011;11027;51.030;13.812;2024-01-15T14:01:49;10.85;;;5.15;;
21729;SDS011;11027;51.030;13.812;2024-01-15T14:04:14;9.00;;;5.18;;
21729;SDS011;11027;51.030;13.812;2024-01-15T14:06:40;8.52;;;4.97;;
21729;SDS011;11027;51.030;13.812;2024-01-15T14:09:06;10.55;;;5.00;;
21729;SDS011;11027;51.030;13.812;2024-01-15T14:11:34;12.45;;;5.75;;
21729;SDS011;11027;51.030;13.812;2024-01-15T14:14:00;11.35;;;5.95;;
21729;SDS011;11027;51.030;13.812;2024-01-15T14:16:27;10.82;;;6.22;;
21729;SDS011;11027;51.030;13.812;2024-01-15T14:18:52;11.15;;;5.45;;
21729;SDS011;11027;51.030;13.812;2024-01-15T14:21:18;9.05;;;4.90;;
21729;SDS011;11027;51.030;13.812;2024-01-15T14:23:43;10.95;;;5.45;;
21729;SDS011;11027;51.030;13.812;2024-01-15T14:26:08;10.13;;;5.40;;
21729;SDS011;11027;51.030;13.812;2024-01-15T14:28:34;8.90;;;5.25;;
21729;SDS011;11027;51.030;13.812;2024-01-15T14:30:59;10.35;;;5.50;;
21729;SDS011;11027;51.030;13.812;2024-01-15T14:33:25;13.65;;;5.80;;